createdAt,value
2023-02-11T00:01:30.523Z,80.43
2023-02-11T00:03:58.728Z,82.93
2023-02-11T00:06:28.073Z,60.13
2023-02-11T00:08:56.263Z,67.63
2023-02-11T00:11:26.407Z,75.20
2023-02-11T00:13:53.451Z,76.07
2023-02-11T00:16:21.058Z,74.68
2023-02-11T00:18:48.758Z,74.78
2023-02-11T00:21:21.888Z,74.07
2023-02-11T00:23:49.163Z,63.88
2023-02-11T00:26:27.649Z,70.85
2023-02-11T00:28:54.735Z,67.50
2023-02-11T00:31:25.302Z,68.03
2023-02-11T00:33:53.189Z,68.38
2023-02-11T00:36:25.662Z,64.47
2023-02-11T00:41:21.736Z,75.88
2023-02-11T00:43:49.539Z,61.28
2023-02-11T00:46:19.212Z,73.20
2023-02-11T00:48:46.228Z,55.15
2023-02-11T00:51:13.344Z,66.88
2023-02-11T00:53:40.582Z,65.60
2023-02-11T00:56:08.057Z,65.00
2023-02-11T00:58:35.884Z,67.18
2023-02-11T01:01:04.792Z,69.63
2023-02-11T01:03:32.003Z,69.72
2023-02-11T01:05:59.358Z,64.10
2023-02-11T01:08:26.705Z,66.88
2023-02-11T01:10:58.956Z,70.72
2023-02-11T01:13:27.062Z,59.00
2023-02-11T01:15:54.978Z,69.63
2023-02-11T01:18:22.033Z,68.95
2023-02-11T01:20:51.713Z,70.03
2023-02-11T01:23:19.161Z,75.88
2023-02-11T01:25:46.995Z,73.40
2023-02-11T01:28:26.002Z,69.20
2023-02-11T01:30:53.945Z,67.55
2023-02-11T01:33:22.187Z,62.88
2023-02-11T01:35:50.268Z,57.28
2023-02-11T01:38:23.402Z,67.28
2023-02-11T01:41:00.621Z,62.70
2023-02-11T01:43:37.998Z,68.88
2023-02-11T01:46:23.321Z,65.07
2023-02-11T01:49:04.858Z,54.80
2023-02-11T01:52:00.574Z,58.75
2023-02-11T01:54:51.266Z,60.30
2023-02-11T01:57:22.004Z,57.72
2023-02-11T01:59:55.366Z,57.88
2023-02-11T02:02:30.178Z,62.28
2023-02-11T02:05:08.788Z,62.30
2023-02-11T02:07:52.401Z,63.55
2023-02-11T02:10:22.981Z,55.53
2023-02-11T02:12:49.995Z,58.60
2023-02-11T02:15:25.715Z,62.90
2023-02-11T02:18:18.792Z,64.32
2023-02-11T02:21:10.023Z,68.05
2023-02-11T02:24:00.516Z,64.97
2023-02-11T02:26:50.208Z,61.20
2023-02-11T02:29:31.292Z,57.75
2023-02-11T02:32:13.278Z,54.05
2023-02-11T02:35:11.691Z,59.53
2023-02-11T02:38:10.671Z,61.55
2023-02-11T02:41:03.231Z,63.80
2023-02-11T02:43:31.217Z,65.95
2023-02-11T02:46:11.259Z,69.93
2023-02-11T02:48:38.422Z,60.75
2023-02-11T02:51:32.866Z,63.65
2023-02-11T02:54:05.616Z,60.35
2023-02-11T02:57:03.373Z,54.65
2023-02-11T03:00:00.677Z,55.75
2023-02-11T03:02:41.263Z,54.47
2023-02-11T03:05:38.734Z,62.17
2023-02-11T03:08:45.854Z,54.78
2023-02-11T03:11:17.100Z,57.83
2023-02-11T03:13:46.384Z,60.55
2023-02-11T03:16:38.945Z,51.00
2023-02-11T03:19:16.197Z,55.38
2023-02-11T03:21:45.131Z,55.83
2023-02-11T03:24:25.879Z,61.95
2023-02-11T03:26:58.184Z,63.35
2023-02-11T03:29:39.212Z,70.10
2023-02-11T03:32:18.005Z,58.75
2023-02-11T03:34:57.275Z,64.40
2023-02-11T03:37:31.611Z,61.50
2023-02-11T03:40:11.848Z,64.47
2023-02-11T03:42:45.073Z,66.13
2023-02-11T03:45:16.834Z,68.65
2023-02-11T03:47:55.563Z,70.18
2023-02-11T03:50:24.037Z,60.55
2023-02-11T03:52:51.767Z,61.40
2023-02-11T03:55:21.079Z,55.38
2023-02-11T03:57:48.661Z,63.13
2023-02-11T04:00:15.836Z,59.75
2023-02-11T04:02:43.596Z,55.15
2023-02-11T04:05:14.182Z,59.47
2023-02-11T04:07:41.207Z,57.25
2023-02-11T04:10:08.553Z,54.83
2023-02-11T04:12:35.555Z,57.67
2023-02-11T04:15:02.668Z,70.93
2023-02-11T04:17:29.675Z,63.75
2023-02-11T04:19:56.695Z,57.30
2023-02-11T04:22:23.747Z,65.82
2023-02-11T04:24:50.741Z,55.55
2023-02-11T04:27:17.826Z,55.72
2023-02-11T04:29:44.869Z,56.90
2023-02-11T04:32:12.399Z,60.55
2023-02-11T04:34:39.571Z,60.15
2023-02-11T04:37:07.008Z,58.65
2023-02-11T04:39:34.732Z,57.38
2023-02-11T04:42:01.705Z,60.75
2023-02-11T04:44:28.900Z,63.10
2023-02-11T04:46:55.978Z,50.25
2023-02-11T04:49:23.011Z,55.50
2023-02-11T04:51:50.234Z,58.05
2023-02-11T04:54:19.116Z,51.70
2023-02-11T04:56:46.130Z,57.08
2023-02-11T04:59:13.569Z,50.10
2023-02-11T05:01:40.884Z,52.35
2023-02-11T05:04:07.980Z,60.92
2023-02-11T05:06:35.100Z,57.90
2023-02-11T05:09:02.477Z,59.92
2023-02-11T05:11:29.513Z,55.40
2023-02-11T05:13:56.531Z,50.13
2023-02-11T05:16:23.762Z,50.40
2023-02-11T05:18:52.529Z,55.45
2023-02-11T05:21:20.003Z,50.38
2023-02-11T05:23:47.715Z,57.10
2023-02-11T05:26:14.765Z,48.83
2023-02-11T05:28:42.542Z,57.33
2023-02-11T05:31:10.681Z,52.03
2023-02-11T05:33:38.015Z,59.67
2023-02-11T05:36:08.372Z,50.13
2023-02-11T05:38:36.318Z,48.03
2023-02-11T05:41:04.180Z,54.35
2023-02-11T05:43:32.089Z,49.33
2023-02-11T05:45:59.193Z,54.08
2023-02-11T05:48:26.245Z,54.35
2023-02-11T05:50:53.262Z,54.10
2023-02-11T05:53:20.325Z,47.05
2023-02-11T05:55:47.373Z,59.58
2023-02-11T05:58:14.366Z,60.90
2023-02-11T06:00:41.483Z,53.17
2023-02-11T06:03:08.598Z,52.42
2023-02-11T06:05:35.655Z,53.70
2023-02-11T06:08:02.953Z,50.58
2023-02-11T06:10:30.224Z,56.78
2023-02-11T06:12:57.182Z,57.85
2023-02-11T06:15:24.270Z,57.88
2023-02-11T06:17:51.535Z,58.25
2023-02-11T06:20:19.186Z,54.65
2023-02-11T06:22:46.627Z,54.40
2023-02-11T06:25:14.898Z,54.42
2023-02-11T06:27:41.909Z,51.38
2023-02-11T06:30:09.776Z,48.13
2023-02-11T06:32:44.596Z,58.78
2023-02-11T06:35:13.653Z,47.55
2023-02-11T06:37:42.197Z,53.90
2023-02-11T06:40:11.155Z,52.20
2023-02-11T06:42:39.111Z,63.83
2023-02-11T06:45:09.498Z,49.03
2023-02-11T06:47:37.494Z,52.53
2023-02-11T06:50:06.024Z,54.70
2023-02-11T06:52:33.884Z,53.92
2023-02-11T06:55:00.937Z,59.80
2023-02-11T06:57:28.036Z,55.03
2023-02-11T06:59:55.578Z,52.97
2023-02-11T07:02:22.571Z,50.42
2023-02-11T07:04:49.628Z,58.60
2023-02-11T07:07:16.654Z,49.78
2023-02-11T07:09:44.014Z,50.47
2023-02-11T07:12:13.429Z,58.40
2023-02-11T07:14:40.672Z,54.42
2023-02-11T07:17:07.667Z,57.30
2023-02-11T07:19:34.634Z,65.95
2023-02-11T07:22:02.317Z,52.97
2023-02-11T07:24:29.322Z,56.88
2023-02-11T07:26:56.337Z,57.72
2023-02-11T07:29:23.553Z,69.43
2023-02-11T07:31:50.611Z,53.75
2023-02-11T07:34:17.843Z,56.55
2023-02-11T07:36:45.088Z,54.30
2023-02-11T07:39:12.392Z,52.40
2023-02-11T07:41:39.444Z,53.88
2023-02-11T07:44:06.830Z,59.15
2023-02-11T07:46:35.580Z,59.53
2023-02-11T07:49:02.755Z,66.40
2023-02-11T07:51:31.076Z,60.90
2023-02-11T07:53:59.735Z,52.50
2023-02-11T07:56:28.506Z,57.13
2023-02-11T07:58:56.845Z,58.58
2023-02-11T08:01:27.095Z,53.65
2023-02-11T08:03:58.080Z,57.05
2023-02-11T08:06:27.408Z,50.17
2023-02-11T08:08:54.975Z,54.53
2023-02-11T08:11:25.470Z,57.85
2023-02-11T08:13:53.528Z,54.42
2023-02-11T08:16:29.765Z,56.67
2023-02-11T08:18:58.868Z,58.85
2023-02-11T08:21:26.380Z,53.92
2023-02-11T08:23:55.095Z,58.53
2023-02-11T08:26:25.461Z,62.65
2023-02-11T08:28:53.983Z,50.20
2023-02-11T08:31:22.347Z,50.70
2023-02-11T08:33:50.339Z,44.80
2023-02-11T08:36:32.111Z,48.63
2023-02-11T08:39:17.573Z,49.38
2023-02-11T08:41:48.650Z,50.25
2023-02-11T08:44:21.378Z,42.35
2023-02-11T08:46:50.701Z,47.80
2023-02-11T08:49:17.765Z,48.72
2023-02-11T08:51:45.243Z,48.65
2023-02-11T08:54:13.305Z,49.92
2023-02-11T08:56:40.611Z,48.50
2023-02-11T08:59:09.182Z,49.15
2023-02-11T09:01:36.430Z,40.65
2023-02-11T09:04:03.552Z,38.83
2023-02-11T09:06:30.600Z,38.55
2023-02-11T09:08:58.219Z,40.10
2023-02-11T09:11:29.258Z,44.00
2023-02-11T09:13:56.363Z,38.80
2023-02-11T09:16:26.210Z,40.50
2023-02-11T09:18:55.701Z,39.65
2023-02-11T09:21:22.821Z,39.78
2023-02-11T09:23:49.891Z,40.22
2023-02-11T09:26:23.340Z,39.33
2023-02-11T09:28:51.430Z,39.25
2023-02-11T09:31:21.423Z,42.95
2023-02-11T09:33:51.204Z,39.92
2023-02-11T09:36:24.672Z,39.28
2023-02-11T09:38:52.710Z,37.58
2023-02-11T09:41:43.238Z,41.63
2023-02-11T09:44:20.008Z,44.55
2023-02-11T09:46:54.910Z,36.05
2023-02-11T09:49:31.272Z,42.28
2023-02-11T09:52:24.415Z,39.20
2023-02-11T09:55:00.431Z,48.50
2023-02-11T09:57:33.657Z,39.08
2023-02-11T10:00:02.134Z,40.38
2023-02-11T10:03:06.984Z,39.92
2023-02-11T10:06:01.482Z,37.83
2023-02-11T10:08:33.121Z,39.35
2023-02-11T10:11:31.207Z,44.63
2023-02-11T10:14:19.590Z,40.80
2023-02-11T10:17:09.954Z,40.33
2023-02-11T10:19:55.300Z,53.10
2023-02-11T10:22:30.826Z,45.03
2023-02-11T10:25:00.316Z,46.60
2023-02-11T10:27:36.041Z,40.33
2023-02-11T10:30:19.144Z,38.45
2023-02-11T10:33:16.843Z,49.03
2023-02-11T10:35:43.905Z,48.17
2023-02-11T10:38:11.465Z,41.85
2023-02-11T10:40:38.597Z,41.78
2023-02-11T10:43:11.917Z,40.17
2023-02-11T10:45:45.909Z,45.03
2023-02-11T10:48:40.850Z,45.78
2023-02-11T10:51:21.200Z,52.17
2023-02-11T10:54:04.948Z,50.65
2023-02-11T10:56:37.909Z,43.45
2023-02-11T10:59:14.271Z,39.58
2023-02-11T11:01:49.060Z,48.80
2023-02-11T11:04:34.120Z,51.25
2023-02-11T11:07:20.461Z,45.15
2023-02-11T11:10:06.749Z,43.85
2023-02-11T11:12:46.473Z,47.17
2023-02-11T11:15:18.715Z,47.65
2023-02-11T11:17:46.331Z,47.38
2023-02-11T11:20:16.401Z,43.88
2023-02-11T11:22:44.047Z,50.70
2023-02-11T11:25:26.734Z,45.53
2023-02-11T11:27:57.126Z,42.30
2023-02-11T11:30:31.612Z,51.35
2023-02-11T11:32:59.416Z,46.88
2023-02-11T11:35:32.936Z,42.20
2023-02-11T11:38:03.327Z,50.00
2023-02-11T11:40:33.193Z,52.33
2023-02-11T11:43:12.445Z,52.72
2023-02-11T11:45:51.959Z,57.40
2023-02-11T11:48:34.208Z,60.33
2023-02-11T11:51:09.529Z,53.67
2023-02-11T11:53:54.752Z,58.15
2023-02-11T11:56:24.338Z,57.90
2023-02-11T11:58:51.574Z,57.58
2023-02-11T12:02:01.957Z,64.43
2023-02-11T12:04:47.423Z,56.65
2023-02-11T12:07:34.515Z,62.97
2023-02-11T12:10:40.027Z,58.20
2023-02-11T12:13:40.205Z,80.75
2023-02-11T12:16:13.858Z,63.78
2023-02-11T12:19:02.994Z,62.03
2023-02-11T12:21:55.952Z,61.13
2023-02-11T12:27:10.420Z,72.07
2023-02-11T12:30:10.433Z,60.72
2023-02-11T12:33:04.759Z,70.63
2023-02-11T12:35:46.799Z,59.78
2023-02-11T12:38:25.677Z,72.03
2023-02-11T12:41:10.273Z,60.47
2023-02-11T12:43:39.651Z,84.65
2023-02-11T12:46:25.764Z,72.40
2023-02-11T12:49:19.323Z,62.38
2023-02-11T12:52:08.424Z,85.38
2023-02-11T12:54:43.612Z,75.82
2023-02-11T12:57:26.482Z,108.82
2023-02-11T13:00:04.158Z,75.00
2023-02-11T13:02:58.080Z,73.50
2023-02-11T13:05:40.431Z,80.85
2023-02-11T13:08:16.190Z,73.25
2023-02-11T13:10:47.814Z,90.78
2023-02-11T13:13:50.410Z,71.88
2023-02-11T13:16:58.277Z,78.28
2023-02-11T13:19:38.856Z,100.10
2023-02-11T13:22:31.991Z,88.88
2023-02-11T13:27:43.656Z,78.13
2023-02-11T13:30:33.121Z,124.50
2023-02-11T13:33:03.230Z,92.55
2023-02-11T13:35:39.932Z,83.85
2023-02-11T13:38:25.066Z,85.45
2023-02-11T13:41:07.186Z,116.57
2023-02-11T13:43:36.277Z,97.70
2023-02-11T13:46:10.144Z,79.45
2023-02-11T13:48:45.545Z,114.47
2023-02-11T13:51:15.877Z,105.22
2023-02-11T13:53:53.229Z,113.57
2023-02-11T13:56:34.420Z,88.20
2023-02-11T13:59:05.366Z,82.35
2023-02-11T14:02:12.247Z,102.35
2023-02-11T14:05:22.688Z,103.30
2023-02-11T14:08:32.442Z,103.13
2023-02-11T14:11:08.333Z,94.30
2023-02-11T14:13:47.390Z,106.65
2023-02-11T14:16:37.059Z,100.85
2023-02-11T14:19:06.034Z,78.93
2023-02-11T14:21:37.471Z,97.80
2023-02-11T14:24:04.912Z,102.32
2023-02-11T14:27:07.798Z,96.95
2023-02-11T14:29:44.089Z,90.18
2023-02-11T14:32:26.388Z,105.50
2023-02-11T14:34:59.204Z,100.43
2023-02-11T14:38:05.107Z,91.90
2023-02-11T14:40:47.606Z,119.28
2023-02-11T14:43:27.810Z,90.13
2023-02-11T14:45:58.552Z,96.70
2023-02-11T14:48:36.744Z,103.43
2023-02-11T14:51:13.809Z,94.30
2023-02-11T14:53:46.366Z,118.05
2023-02-11T14:58:49.559Z,90.72
2023-02-11T15:01:37.888Z,106.38
2023-02-11T15:04:21.171Z,88.30
2023-02-11T15:06:52.024Z,96.70
2023-02-11T15:09:48.041Z,110.45
2023-02-11T15:12:27.746Z,109.15
2023-02-11T15:14:58.414Z,101.20
2023-02-11T15:17:31.819Z,108.10
2023-02-11T15:20:01.713Z,90.15
2023-02-11T15:22:36.880Z,80.93
2023-02-11T15:25:06.763Z,87.70
2023-02-11T15:27:41.864Z,95.55
2023-02-11T15:30:21.136Z,92.93
2023-02-11T15:32:58.000Z,89.22
2023-02-11T15:35:34.914Z,97.68
2023-02-11T15:38:02.508Z,106.68
2023-02-11T15:40:32.992Z,105.60
2023-02-11T15:43:03.208Z,88.13
2023-02-11T15:45:33.754Z,90.30
2023-02-11T15:48:14.570Z,90.78
2023-02-11T15:50:42.809Z,91.63
2023-02-11T15:53:27.601Z,87.32
2023-02-11T15:56:00.772Z,91.05
2023-02-11T15:58:27.898Z,92.78
2023-02-11T16:00:59.563Z,128.25
2023-02-11T16:03:32.430Z,89.63
2023-02-11T16:06:25.597Z,93.38
2023-02-11T16:09:16.687Z,101.65
2023-02-11T16:11:47.141Z,99.45
2023-02-11T16:14:33.964Z,102.90
2023-02-11T16:17:07.129Z,94.75
2023-02-11T16:19:35.517Z,90.93
2023-02-11T16:22:09.225Z,94.60
2023-02-11T16:24:39.113Z,98.28
2023-02-11T16:27:22.993Z,101.72
2023-02-11T16:29:51.134Z,113.75
2023-02-11T16:32:23.673Z,102.35
2023-02-11T16:37:18.179Z,129.45
2023-02-11T16:39:45.991Z,130.23
2023-02-11T16:42:13.327Z,95.78
2023-02-11T16:44:40.395Z,117.20
2023-02-11T16:47:17.194Z,104.40
2023-02-11T16:49:44.238Z,91.07
2023-02-11T16:52:15.886Z,113.40
2023-02-11T16:54:42.944Z,125.93
2023-02-11T16:57:18.689Z,102.03
2023-02-11T16:59:46.095Z,112.20
2023-02-11T17:02:22.878Z,93.80
2023-02-11T17:04:53.697Z,91.43
2023-02-11T17:07:21.349Z,95.05
2023-02-11T17:09:48.352Z,115.32
2023-02-11T17:12:15.379Z,89.57
2023-02-11T17:14:42.349Z,88.78
2023-02-11T17:17:10.490Z,95.25
2023-02-11T17:19:38.321Z,105.60
2023-02-11T17:22:05.830Z,98.35
2023-02-11T17:24:33.127Z,105.10
2023-02-11T17:27:00.129Z,99.18
2023-02-11T17:29:27.160Z,87.63
2023-02-11T17:31:54.718Z,90.50
2023-02-11T17:34:22.328Z,88.97
2023-02-11T17:36:49.949Z,85.35
2023-02-11T17:39:19.202Z,90.65
2023-02-11T17:41:46.347Z,103.38
2023-02-11T17:44:14.000Z,88.57
2023-02-11T17:46:41.015Z,80.68
2023-02-11T17:49:08.197Z,86.65
2023-02-11T17:51:37.771Z,91.07
2023-02-11T17:54:14.279Z,81.95
2023-02-11T17:56:42.041Z,90.72
2023-02-11T17:59:10.508Z,89.05
2023-02-11T18:01:38.623Z,100.03
2023-02-11T18:04:06.889Z,100.55
2023-02-11T18:06:34.152Z,103.53
2023-02-11T18:09:04.094Z,98.25
2023-02-11T18:11:33.042Z,97.47
2023-02-11T18:14:01.873Z,103.88
2023-02-11T18:16:29.922Z,94.40
2023-02-11T18:18:58.453Z,98.13
2023-02-11T18:21:25.887Z,103.68
2023-02-11T18:23:53.172Z,99.70
2023-02-11T18:26:21.222Z,104.10
2023-02-11T18:28:48.260Z,97.68
2023-02-11T18:31:15.556Z,110.10
2023-02-11T18:33:43.380Z,97.28
2023-02-11T18:36:13.806Z,101.93
2023-02-11T18:38:44.020Z,109.18
2023-02-11T18:41:11.832Z,109.38
2023-02-11T18:43:39.925Z,116.10
2023-02-11T18:46:09.695Z,104.07
2023-02-11T18:48:38.154Z,103.70
2023-02-11T18:51:14.630Z,98.15
2023-02-11T18:53:43.003Z,98.22
2023-02-11T18:56:21.669Z,127.15
2023-02-11T18:58:49.310Z,126.40
2023-02-11T19:01:24.306Z,108.68
2023-02-11T19:03:52.511Z,118.65
2023-02-11T19:06:27.880Z,121.93
2023-02-11T19:08:59.531Z,144.13
2023-02-11T19:11:47.625Z,133.45
2023-02-11T19:14:23.239Z,127.38
2023-02-11T19:16:52.785Z,111.32
2023-02-11T19:19:24.066Z,131.98
2023-02-11T19:21:51.351Z,117.65
2023-02-11T19:24:20.255Z,118.68
2023-02-11T19:26:48.726Z,131.25
2023-02-11T19:29:16.525Z,123.57
2023-02-11T19:31:44.522Z,127.07
2023-02-11T19:34:14.005Z,120.65
2023-02-11T19:36:41.477Z,135.98
2023-02-11T19:39:09.155Z,138.80
2023-02-11T19:41:36.362Z,138.50
2023-02-11T19:44:05.403Z,152.85
2023-02-11T19:46:36.289Z,136.07
2023-02-11T19:49:04.722Z,136.43
2023-02-11T19:51:33.700Z,128.07
2023-02-11T19:54:00.810Z,120.45
2023-02-11T19:56:30.985Z,117.70
2023-02-11T19:58:58.296Z,110.70
2023-02-11T20:01:25.951Z,120.97
2023-02-11T20:03:55.288Z,121.38
2023-02-11T20:06:25.051Z,113.47
2023-02-11T20:09:07.234Z,103.90
2023-02-11T20:11:35.202Z,107.38
2023-02-11T20:14:02.843Z,112.55
2023-02-11T20:16:46.978Z,115.15
2023-02-11T20:19:17.827Z,121.22
2023-02-11T20:21:48.036Z,114.40
2023-02-11T20:24:19.334Z,112.95
2023-02-11T20:26:48.304Z,98.82
2023-02-11T20:29:17.061Z,108.93
2023-02-11T20:31:44.406Z,120.07
2023-02-11T20:34:12.657Z,108.43
2023-02-11T20:36:40.508Z,110.07
2023-02-11T20:39:07.971Z,124.65
2023-02-11T20:41:39.584Z,117.10
2023-02-11T20:44:09.902Z,134.38
2023-02-11T20:46:39.976Z,123.68
2023-02-11T20:49:08.559Z,111.38
2023-02-11T20:51:37.179Z,120.05
2023-02-11T20:54:06.284Z,128.32
2023-02-11T20:56:36.682Z,130.20
2023-02-11T20:59:05.013Z,135.35
2023-02-11T21:01:38.109Z,121.90
2023-02-11T21:04:08.175Z,132.75
2023-02-11T21:06:40.814Z,130.27
2023-02-11T21:11:36.098Z,130.15
2023-02-11T21:14:03.560Z,137.07
2023-02-11T21:16:31.556Z,131.75
2023-02-11T21:19:00.393Z,141.07
2023-02-11T21:21:27.736Z,127.65
2023-02-11T21:23:56.050Z,152.88
2023-02-11T21:26:23.110Z,124.78
2023-02-11T21:28:51.840Z,125.90
2023-02-11T21:31:25.971Z,143.38
2023-02-11T21:33:57.119Z,122.93
2023-02-11T21:36:24.159Z,125.43
2023-02-11T21:38:51.727Z,137.73
2023-02-11T21:41:21.787Z,137.98
2023-02-11T21:43:49.746Z,135.38
2023-02-11T21:46:18.443Z,121.90
2023-02-11T21:48:45.603Z,125.75
2023-02-11T21:51:15.420Z,122.05
2023-02-11T21:53:42.441Z,138.15
2023-02-11T21:56:15.220Z,138.15
2023-02-11T21:58:43.117Z,128.77
2023-02-11T22:01:22.965Z,144.73
2023-02-11T22:03:50.351Z,130.27
2023-02-11T22:06:21.384Z,152.00
2023-02-11T22:08:54.742Z,129.80
2023-02-11T22:11:22.156Z,139.52
2023-02-11T22:13:54.015Z,118.72
2023-02-11T22:16:22.264Z,129.68
2023-02-11T22:18:49.540Z,133.38
2023-02-11T22:21:19.120Z,132.90
2023-02-11T22:23:46.888Z,132.98
2023-02-11T22:26:17.350Z,126.90
2023-02-11T22:28:45.048Z,114.45
2023-02-11T22:31:18.208Z,129.63
2023-02-11T22:33:46.023Z,131.48
2023-02-11T22:36:20.754Z,118.15
2023-02-11T22:38:48.802Z,126.00
2023-02-11T22:41:16.492Z,123.35
2023-02-11T22:43:44.532Z,128.80
2023-02-11T22:46:14.474Z,116.95
2023-02-11T22:48:41.986Z,131.35
2023-02-11T22:51:12.075Z,128.70
2023-02-11T22:53:39.890Z,124.53
2023-02-11T22:56:14.813Z,123.30
2023-02-11T22:58:43.191Z,131.68
2023-02-11T23:01:11.195Z,122.72
2023-02-11T23:03:39.271Z,124.45
2023-02-11T23:06:06.661Z,130.93
2023-02-11T23:08:34.402Z,125.43
2023-02-11T23:11:10.898Z,129.55
2023-02-11T23:13:40.225Z,120.00
2023-02-11T23:16:10.740Z,120.03
2023-02-11T23:18:39.779Z,115.45
2023-02-11T23:21:27.879Z,123.53
2023-02-11T23:24:21.662Z,133.80
2023-02-11T23:26:48.829Z,112.20
2023-02-11T23:29:15.819Z,126.22
2023-02-11T23:31:46.365Z,109.32
2023-02-11T23:34:25.408Z,125.20
2023-02-11T23:36:53.004Z,122.32
2023-02-11T23:39:20.431Z,116.97
2023-02-11T23:41:47.428Z,132.25
2023-02-11T23:44:14.721Z,113.07
2023-02-11T23:46:41.747Z,121.65
2023-02-11T23:49:08.894Z,124.50
2023-02-11T23:51:35.915Z,120.10
2023-02-11T23:54:03.182Z,115.03
2023-02-11T23:56:30.486Z,131.65
2023-02-11T23:58:58.659Z,122.75
